Preview of NWS' New Version of Forecast
This preview is not operational and should not be used for support decisions.

Terminal Aerodrome Forecast (TAF)

Issued by National Weather Service (NWS)

                            
000
FTUS42 KCAE 202103 AAA
TAFOGB
TAF AMD
KOGB 202103Z 2021/2118 VRB04KT P6SM FEW050
     FM210100 00000KT P6SM SKC
      TEMPO 2109/2112 4SM BR
     FM211400 09005KT P6SM FEW250=